Time;durP1;ratioP1;P1;durP2;ratioP2;P2;SDS_P1;SDS_P2;PMS_P1;PMS_P2;Temp;Humidity;BMP_temperature;BMP_pressure;BME280_temperature;BME280_humidity;BME280_pressure;Samples;Min_cycle;Max_cycle;Signal;HPM_P1;HPM_P2
2022/10/24 00:01:51;;;;;;;8.73;6.18;;;;;;;;;;5105934;27;20054;-89
2022/10/24 00:04:17;;;;;;;15.57;6.28;;;;;;;;;;5106580;27;20396;-89
2022/10/24 00:06:43;;;;;;;15.60;6.68;;;;;;;;;;5102073;27;20055;-89
2022/10/24 00:09:10;;;;;;;9.48;6.55;;;;;;;;;;5107239;27;20019;-88
2022/10/24 00:11:37;;;;;;;13.32;6.78;;;;;;;;;;5106748;27;20548;-90
2022/10/24 00:14:03;;;;;;;11.90;6.25;;;;;;;;;;5104364;27;20343;-88
2022/10/24 00:16:29;;;;;;;14.07;6.57;;;;;;;;;;5097148;27;20031;-88
2022/10/24 00:18:56;;;;;;;8.73;6.45;;;;;;;;;;5105533;27;20024;-89
2022/10/24 00:21:22;;;;;;;12.65;7.07;;;;;;;;;;5103921;27;20130;-89
2022/10/24 00:23:48;;;;;;;10.52;6.35;;;;;;;;;;5100720;27;20212;-89
2022/10/24 00:26:15;;;;;;;11.57;6.22;;;;;;;;;;5102067;27;20015;-89
2022/10/24 00:28:41;;;;;;;11.38;6.68;;;;;;;;;;5096480;27;20147;-87
2022/10/24 00:31:12;;;;;;;9.60;6.70;;;;;;;;;;5106973;27;20019;-88
2022/10/24 00:33:38;;;;;;;11.52;7.20;;;;;;;;;;5099969;27;20058;-89
2022/10/24 00:36:04;;;;;;;12.00;7.63;;;;;;;;;;5104195;27;20023;-89
2022/10/24 00:38:30;;;;;;;13.75;6.82;;;;;;;;;;5108007;27;20033;-89
2022/10/24 00:40:57;;;;;;;8.20;6.15;;;;;;;;;;5107932;27;20092;-89
2022/10/24 00:43:24;;;;;;;8.68;6.25;;;;;;;;;;5100452;28;20054;-89
2022/10/24 00:45:56;;;;;;;9.90;6.28;;;;;;;;;;5114772;27;20046;-88
2022/10/24 00:48:25;;;;;;;9.70;5.43;;;;;;;;;;5096943;27;20043;-89
2022/10/24 00:50:53;;;;;;;8.48;6.07;;;;;;;;;;5098824;27;20045;-87
2022/10/24 00:53:21;;;;;;;7.30;6.20;;;;;;;;;;5102927;27;20073;-89
2022/10/24 00:55:49;;;;;;;9.88;5.93;;;;;;;;;;5100437;27;20047;-88
2022/10/24 00:58:16;;;;;;;10.23;6.78;;;;;;;;;;5098656;28;20562;-89
2022/10/24 01:00:42;;;;;;;6.88;5.70;;;;;;;;;;5122788;27;20128;-89
2022/10/24 01:03:10;;;;;;;9.85;6.43;;;;;;;;;;5105791;27;20019;-88
2022/10/24 01:05:40;;;;;;;8.70;5.93;;;;;;;;;;5103247;28;20073;-88
2022/10/24 01:08:09;;;;;;;9.45;5.55;;;;;;;;;;5101122;27;20047;-87
2022/10/24 01:10:35;;;;;;;7.55;6.22;;;;;;;;;;5105885;27;20106;-89
2022/10/24 01:13:08;;;;;;;12.40;6.50;;;;;;;;;;5098964;27;20115;-88
2022/10/24 01:15:49;;;;;;;13.20;6.28;;;;;;;;;;5094408;28;20015;-88
2022/10/24 01:18:32;;;;;;;9.63;6.05;;;;;;;;;;5100725;27;20114;-89
2022/10/24 01:21:05;;;;;;;8.35;6.55;;;;;;;;;;5104229;27;20112;-88
2022/10/24 01:23:32;;;;;;;9.32;7.03;;;;;;;;;;5106176;27;20027;-89
2022/10/24 01:26:12;;;;;;;9.95;6.35;;;;;;;;;;5101306;27;20111;-89
2022/10/24 01:28:47;;;;;;;9.00;6.07;;;;;;;;;;5103323;27;20052;-89
2022/10/24 01:31:21;;;;;;;10.35;6.82;;;;;;;;;;5117252;27;20551;-89
2022/10/24 01:33:53;;;;;;;8.27;5.93;;;;;;;;;;5097021;28;20087;-88
2022/10/24 01:36:23;;;;;;;10.40;6.63;;;;;;;;;;5099628;28;20168;-88
2022/10/24 01:38:57;;;;;;;12.73;6.85;;;;;;;;;;5098950;28;20533;-88
2022/10/24 01:41:24;;;;;;;9.30;6.88;;;;;;;;;;5097963;28;20079;-89
2022/10/24 01:43:52;;;;;;;9.50;7.55;;;;;;;;;;5102728;28;20154;-89
2022/10/24 01:46:20;;;;;;;14.07;8.27;;;;;;;;;;5104536;28;20110;-88
2022/10/24 01:48:48;;;;;;;13.07;7.45;;;;;;;;;;5102759;28;20111;-88
2022/10/24 01:51:17;;;;;;;12.05;7.72;;;;;;;;;;5104901;28;20229;-89
2022/10/24 01:53:43;;;;;;;11.10;7.13;;;;;;;;;;5105340;28;20015;-89
2022/10/24 01:56:10;;;;;;;10.70;7.25;;;;;;;;;;5107220;28;20032;-88
2022/10/24 01:58:36;;;;;;;10.13;7.85;;;;;;;;;;5103744;28;20047;-89
2022/10/24 02:01:05;;;;;;;10.85;8.00;;;;;;;;;;5098482;28;20032;-89
2022/10/24 02:03:36;;;;;;;11.45;8.73;;;;;;;;;;5100734;28;20047;-89
2022/10/24 02:06:06;;;;;;;11.40;7.88;;;;;;;;;;5107949;28;20027;-89
2022/10/24 02:08:36;;;;;;;10.48;8.82;;;;;;;;;;5105508;28;20031;-89
2022/10/24 02:11:04;;;;;;;13.40;8.75;;;;;;;;;;5101331;28;20016;-89
2022/10/24 02:13:44;;;;;;;14.20;9.40;;;;;;;;;;5103553;28;20138;-89
2022/10/24 02:16:11;;;;;;;9.65;7.95;;;;;;;;;;5107761;28;20062;-89
2022/10/24 02:18:39;;;;;;;11.27;8.65;;;;;;;;;;5106515;28;20043;-89
2022/10/24 02:21:15;;;;;;;13.63;9.45;;;;;;;;;;5104321;28;20032;-89
2022/10/24 02:23:45;;;;;;;14.05;8.98;;;;;;;;;;5102628;28;20016;-89
2022/10/24 02:26:14;;;;;;;12.73;9.50;;;;;;;;;;5098413;28;20035;-89
2022/10/24 02:28:42;;;;;;;16.38;10.02;;;;;;;;;;5105263;28;20115;-89
2022/10/24 02:31:12;;;;;;;15.30;8.98;;;;;;;;;;5103326;28;20564;-87
2022/10/24 02:33:39;;;;;;;12.88;9.23;;;;;;;;;;5097783;28;20047;-88
2022/10/24 02:36:06;;;;;;;12.55;9.48;;;;;;;;;;5102846;28;20020;-90
2022/10/24 02:38:36;;;;;;;13.57;8.75;;;;;;;;;;5100139;28;20111;-89
2022/10/24 02:41:04;;;;;;;13.13;9.27;;;;;;;;;;5102601;28;20059;-89
2022/10/24 02:43:31;;;;;;;14.25;9.50;;;;;;;;;;5097573;28;20050;-88
2022/10/24 02:45:58;;;;;;;16.08;8.60;;;;;;;;;;5099708;28;20114;-89
2022/10/24 02:48:28;;;;;;;11.55;8.23;;;;;;;;;;5104582;28;20107;-88
2022/10/24 02:50:54;;;;;;;11.18;7.85;;;;;;;;;;5101588;28;20057;-88
2022/10/24 02:53:21;;;;;;;12.85;8.20;;;;;;;;;;5101132;28;20064;-88
2022/10/24 02:55:47;;;;;;;12.10;8.30;;;;;;;;;;5100955;28;20069;-88
2022/10/24 02:58:14;;;;;;;12.43;7.70;;;;;;;;;;5097524;28;20478;-89
2022/10/24 03:00:40;;;;;;;8.10;6.60;;;;;;;;;;5103106;28;20039;-89
2022/10/24 03:03:06;;;;;;;10.55;6.68;;;;;;;;;;5097813;28;20028;-88
2022/10/24 03:05:32;;;;;;;9.18;6.72;;;;;;;;;;5104434;28;20115;-88
2022/10/24 03:07:58;;;;;;;13.07;7.40;;;;;;;;;;5098982;28;20058;-88
2022/10/24 03:10:25;;;;;;;10.75;7.55;;;;;;;;;;5101520;28;20650;-88
2022/10/24 03:12:51;;;;;;;11.65;7.78;;;;;;;;;;5105676;28;20028;-88
2022/10/24 03:15:17;;;;;;;15.57;7.60;;;;;;;;;;5103762;28;20027;-88
2022/10/24 03:17:46;;;;;;;8.77;6.80;;;;;;;;;;5105130;28;20027;-88
2022/10/24 03:20:12;;;;;;;8.93;7.00;;;;;;;;;;5107017;28;20043;-88
2022/10/24 03:22:38;;;;;;;10.73;7.88;;;;;;;;;;5099150;28;20119;-88
2022/10/24 03:25:05;;;;;;;10.05;7.57;;;;;;;;;;5106534;28;20016;-88
2022/10/24 03:27:32;;;;;;;11.30;8.60;;;;;;;;;;5106385;28;20035;-89
2022/10/24 03:29:59;;;;;;;9.10;6.60;;;;;;;;;;5100389;28;20031;-89
2022/10/24 03:32:25;;;;;;;11.15;5.97;;;;;;;;;;5099241;28;20039;-88
2022/10/24 03:34:51;;;;;;;7.85;5.78;;;;;;;;;;5105750;27;20034;-88
2022/10/24 03:37:17;;;;;;;11.35;6.57;;;;;;;;;;5102938;27;20031;-89
2022/10/24 03:39:44;;;;;;;10.93;6.53;;;;;;;;;;5108288;28;20080;-89
2022/10/24 03:42:10;;;;;;;11.73;7.47;;;;;;;;;;5102989;27;20046;-88
2022/10/24 03:44:36;;;;;;;9.18;6.72;;;;;;;;;;5114190;27;20027;-89
2022/10/24 03:47:02;;;;;;;8.10;6.95;;;;;;;;;;5107314;27;20110;-89
2022/10/24 03:49:29;;;;;;;11.10;7.45;;;;;;;;;;5112021;27;20022;-89
2022/10/24 03:51:55;;;;;;;8.55;7.35;;;;;;;;;;5107298;28;20016;-89
2022/10/24 03:54:21;;;;;;;11.38;6.70;;;;;;;;;;5107972;27;20046;-89
2022/10/24 03:56:48;;;;;;;10.43;6.75;;;;;;;;;;5109478;27;20161;-89
2022/10/24 03:59:14;;;;;;;6.63;5.38;;;;;;;;;;5108263;27;20023;-89
2022/10/24 04:01:40;;;;;;;9.13;5.72;;;;;;;;;;5112466;28;20118;-89
2022/10/24 04:04:07;;;;;;;10.52;6.20;;;;;;;;;;5112236;27;20019;-89
2022/10/24 04:06:33;;;;;;;9.23;5.80;;;;;;;;;;5115536;27;20054;-88
2022/10/24 04:08:59;;;;;;;6.60;5.25;;;;;;;;;;5109242;27;20023;-89
2022/10/24 04:11:25;;;;;;;9.32;5.43;;;;;;;;;;5113845;27;20023;-89
2022/10/24 04:13:52;;;;;;;8.23;5.70;;;;;;;;;;5113608;27;20029;-88
2022/10/24 04:16:19;;;;;;;9.38;5.47;;;;;;;;;;5104906;27;20088;-88
2022/10/24 04:18:45;;;;;;;6.78;4.50;;;;;;;;;;5110038;27;20027;-88
2022/10/24 04:21:11;;;;;;;7.88;4.30;;;;;;;;;;5105758;27;20054;-89
2022/10/24 04:23:40;;;;;;;10.25;5.13;;;;;;;;;;5098887;27;20020;-88
2022/10/24 04:26:07;;;;;;;12.60;4.43;;;;;;;;;;5108253;27;20033;-89
2022/10/24 04:28:33;;;;;;;6.70;4.53;;;;;;;;;;5109384;27;20028;-88
2022/10/24 04:30:59;;;;;;;6.97;4.18;;;;;;;;;;5102338;28;20039;-88
2022/10/24 04:33:25;;;;;;;6.55;3.65;;;;;;;;;;5104023;27;20100;-89
2022/10/24 04:35:52;;;;;;;9.75;4.45;;;;;;;;;;5102220;27;20027;-87
2022/10/24 04:38:18;;;;;;;7.47;4.18;;;;;;;;;;5105995;27;20027;-88
2022/10/24 04:40:46;;;;;;;9.75;4.00;;;;;;;;;;5108591;27;20027;-89
2022/10/24 04:43:12;;;;;;;8.02;3.92;;;;;;;;;;5109469;27;20032;-88
2022/10/24 04:45:38;;;;;;;6.93;3.97;;;;;;;;;;5105017;27;20106;-88
2022/10/24 04:48:04;;;;;;;6.28;3.95;;;;;;;;;;5106438;27;20031;-88
2022/10/24 04:50:31;;;;;;;9.73;4.18;;;;;;;;;;5106427;27;20099;-88
2022/10/24 04:52:57;;;;;;;8.48;4.65;;;;;;;;;;5103792;27;20084;-89
2022/10/24 04:55:23;;;;;;;7.97;4.80;;;;;;;;;;5107189;27;20031;-88
2022/10/24 04:57:49;;;;;;;8.45;4.78;;;;;;;;;;5106827;28;20028;-88
2022/10/24 05:00:15;;;;;;;7.43;5.00;;;;;;;;;;5104183;27;20034;-88
2022/10/24 05:02:42;;;;;;;10.27;5.22;;;;;;;;;;5096170;28;20030;-90
2022/10/24 05:05:08;;;;;;;8.55;5.18;;;;;;;;;;5101072;27;20422;-91
2022/10/24 05:07:34;;;;;;;10.82;5.13;;;;;;;;;;5106268;27;20027;-89
2022/10/24 05:10:01;;;;;;;7.40;4.70;;;;;;;;;;5107841;27;20019;-88
2022/10/24 05:12:27;;;;;;;7.43;5.25;;;;;;;;;;5111938;27;20023;-93
2022/10/24 05:14:53;;;;;;;10.15;5.25;;;;;;;;;;5108159;27;20311;-89
2022/10/24 05:17:19;;;;;;;10.13;4.68;;;;;;;;;;5105694;27;20119;-89
2022/10/24 05:19:45;;;;;;;8.77;5.10;;;;;;;;;;5110320;27;20099;-90
2022/10/24 05:22:11;;;;;;;9.07;4.60;;;;;;;;;;5106169;27;20268;-90
2022/10/24 05:24:38;;;;;;;6.93;5.07;;;;;;;;;;5110993;27;20027;-89
2022/10/24 05:27:04;;;;;;;7.00;4.72;;;;;;;;;;5107458;27;20023;-90
2022/10/24 05:29:30;;;;;;;8.45;5.88;;;;;;;;;;5106938;27;20019;-90
2022/10/24 05:31:56;;;;;;;9.57;5.10;;;;;;;;;;5108473;27;20489;-90
2022/10/24 05:34:23;;;;;;;8.80;4.80;;;;;;;;;;5103252;28;20047;-90
2022/10/24 05:36:49;;;;;;;12.68;4.38;;;;;;;;;;5103414;28;20051;-90
2022/10/24 05:39:15;;;;;;;6.43;4.18;;;;;;;;;;5106091;28;20508;-90
2022/10/24 05:41:41;;;;;;;8.30;4.80;;;;;;;;;;5106143;28;20104;-87
2022/10/24 05:44:07;;;;;;;6.72;4.70;;;;;;;;;;5098245;28;20031;-89
2022/10/24 05:46:34;;;;;;;7.43;4.50;;;;;;;;;;5104152;28;20035;-90
2022/10/24 05:49:00;;;;;;;6.82;4.78;;;;;;;;;;5099666;28;20180;-89
2022/10/24 05:51:26;;;;;;;8.48;4.60;;;;;;;;;;5098459;28;20039;-89
2022/10/24 05:53:52;;;;;;;12.60;5.00;;;;;;;;;;5098597;28;20020;-89
2022/10/24 05:56:18;;;;;;;8.68;4.43;;;;;;;;;;5107823;28;20031;-90
2022/10/24 05:58:44;;;;;;;6.40;4.80;;;;;;;;;;5110425;28;20030;-90
2022/10/24 06:01:11;;;;;;;10.93;4.70;;;;;;;;;;5106445;28;20035;-90
2022/10/24 06:03:38;;;;;;;7.15;4.50;;;;;;;;;;5099514;28;20056;-90
2022/10/24 06:06:08;;;;;;;12.48;4.75;;;;;;;;;;5109001;28;20030;-88
2022/10/24 06:08:35;;;;;;;8.65;4.22;;;;;;;;;;5109121;28;20110;-88
2022/10/24 06:11:01;;;;;;;8.57;5.03;;;;;;;;;;5099747;28;20486;-88
2022/10/24 06:13:28;;;;;;;10.15;4.90;;;;;;;;;;5104733;28;20036;-89
2022/10/24 06:15:54;;;;;;;9.75;4.60;;;;;;;;;;5107160;28;20030;-88
2022/10/24 06:18:21;;;;;;;7.00;4.88;;;;;;;;;;5103234;28;20020;-88
2022/10/24 06:20:47;;;;;;;9.00;4.72;;;;;;;;;;5104545;28;20032;-88
2022/10/24 06:23:14;;;;;;;6.97;4.93;;;;;;;;;;5102850;28;20029;-88
2022/10/24 06:25:41;;;;;;;12.20;5.13;;;;;;;;;;5101508;28;20024;-88
2022/10/24 06:28:07;;;;;;;6.50;5.18;;;;;;;;;;5106030;28;20057;-88
2022/10/24 06:30:34;;;;;;;9.77;5.18;;;;;;;;;;5102815;28;20389;-88
2022/10/24 06:33:01;;;;;;;6.72;4.47;;;;;;;;;;5101790;28;20044;-87
2022/10/24 06:35:27;;;;;;;6.10;4.45;;;;;;;;;;5101930;28;20035;-88
2022/10/24 06:37:53;;;;;;;12.45;5.32;;;;;;;;;;5099609;28;20108;-88
2022/10/24 06:40:20;;;;;;;9.18;5.32;;;;;;;;;;5102708;28;20569;-87
2022/10/24 06:42:46;;;;;;;10.45;4.65;;;;;;;;;;5102689;28;20115;-87
2022/10/24 06:45:12;;;;;;;11.55;4.95;;;;;;;;;;5099922;28;20016;-86
2022/10/24 06:47:38;;;;;;;8.55;5.25;;;;;;;;;;5104932;28;20028;-87
2022/10/24 06:50:05;;;;;;;10.10;5.82;;;;;;;;;;5106480;28;20115;-87
2022/10/24 06:52:31;;;;;;;11.13;5.20;;;;;;;;;;5103736;28;20031;-87
2022/10/24 06:54:57;;;;;;;12.43;6.05;;;;;;;;;;5107496;28;20016;-87
2022/10/24 06:57:23;;;;;;;11.20;5.95;;;;;;;;;;5099966;28;20066;-87
2022/10/24 06:59:50;;;;;;;8.48;5.28;;;;;;;;;;5108444;28;20031;-88
2022/10/24 07:02:16;;;;;;;8.98;5.75;;;;;;;;;;5101806;28;20039;-90
2022/10/24 07:04:43;;;;;;;14.32;6.18;;;;;;;;;;5112154;28;20477;-89
2022/10/24 07:07:13;;;;;;;8.85;5.38;;;;;;;;;;5108570;28;20024;-88
2022/10/24 07:09:40;;;;;;;7.63;5.00;;;;;;;;;;5105781;28;20050;-88
2022/10/24 07:12:06;;;;;;;7.90;5.10;;;;;;;;;;5106531;28;20020;-88
2022/10/24 07:14:32;;;;;;;7.50;4.50;;;;;;;;;;5109429;28;20023;-89
2022/10/24 07:16:58;;;;;;;8.90;5.45;;;;;;;;;;5109717;28;20110;-90
2022/10/24 07:19:24;;;;;;;10.55;5.00;;;;;;;;;;5110353;28;20542;-88
2022/10/24 07:21:50;;;;;;;9.75;5.15;;;;;;;;;;5103127;28;20031;-87
2022/10/24 07:24:17;;;;;;;10.70;6.13;;;;;;;;;;5107366;28;20076;-87
2022/10/24 07:26:43;;;;;;;9.80;5.50;;;;;;;;;;5104592;28;20111;-87
2022/10/24 07:29:09;;;;;;;8.30;5.75;;;;;;;;;;5104236;28;20230;-87
2022/10/24 07:31:36;;;;;;;9.27;6.53;;;;;;;;;;5100583;28;20024;-87
2022/10/24 07:34:03;;;;;;;12.95;7.30;;;;;;;;;;5106276;28;20093;-87
2022/10/24 07:36:29;;;;;;;11.95;6.28;;;;;;;;;;5105213;28;20536;-87
2022/10/24 07:38:56;;;;;;;11.02;6.40;;;;;;;;;;5103949;28;20172;-88
2022/10/24 07:41:26;;;;;;;15.15;6.57;;;;;;;;;;5106037;28;20023;-87
2022/10/24 07:43:54;;;;;;;13.65;6.88;;;;;;;;;;5100303;28;20024;-87
2022/10/24 07:46:20;;;;;;;12.43;6.75;;;;;;;;;;5106585;28;20031;-86
2022/10/24 07:48:48;;;;;;;14.00;7.88;;;;;;;;;;5103671;28;20052;-84
2022/10/24 07:51:15;;;;;;;13.93;9.35;;;;;;;;;;5107479;28;20056;-83
2022/10/24 07:53:41;;;;;;;15.95;7.78;;;;;;;;;;5094296;28;20100;-84
2022/10/24 07:56:08;;;;;;;15.15;7.38;;;;;;;;;;5102142;28;20043;-85
2022/10/24 07:58:34;;;;;;;9.73;6.38;;;;;;;;;;5096070;28;20465;-85
2022/10/24 08:01:05;;;;;;;12.93;6.05;;;;;;;;;;5095905;28;20038;-85
2022/10/24 08:03:31;;;;;;;10.57;6.55;;;;;;;;;;5102100;28;20497;-85
2022/10/24 08:05:57;;;;;;;13.88;7.43;;;;;;;;;;5099336;28;20401;-85
2022/10/24 08:08:23;;;;;;;13.27;7.05;;;;;;;;;;5098054;28;20050;-85
2022/10/24 08:10:50;;;;;;;11.07;7.07;;;;;;;;;;5096874;28;20016;-85
2022/10/24 08:13:16;;;;;;;14.75;6.82;;;;;;;;;;5096871;28;20131;-85
2022/10/24 08:15:42;;;;;;;13.88;6.97;;;;;;;;;;5100472;28;20549;-85
2022/10/24 08:18:08;;;;;;;10.25;6.80;;;;;;;;;;5102969;28;20027;-87
2022/10/24 08:20:35;;;;;;;17.48;6.63;;;;;;;;;;5094965;28;20027;-87
2022/10/24 08:23:01;;;;;;;12.93;6.30;;;;;;;;;;5096382;28;20039;-87
2022/10/24 08:25:27;;;;;;;11.52;6.03;;;;;;;;;;5100658;28;20103;-87
2022/10/24 08:27:53;;;;;;;11.88;7.10;;;;;;;;;;5096363;28;20032;-87
2022/10/24 08:30:19;;;;;;;15.15;6.35;;;;;;;;;;5095639;28;20122;-87
2022/10/24 08:32:46;;;;;;;13.00;6.45;;;;;;;;;;5101985;28;20046;-88
2022/10/24 08:35:15;;;;;;;9.02;5.70;;;;;;;;;;5104762;27;20023;-87
2022/10/24 08:37:42;;;;;;;8.23;4.80;;;;;;;;;;5097279;28;20016;-86
2022/10/24 08:40:11;;;;;;;10.52;5.40;;;;;;;;;;5098006;27;20106;-87
2022/10/24 08:42:40;;;;;;;10.43;5.55;;;;;;;;;;5096073;28;20120;-87
2022/10/24 08:45:18;;;;;;;9.63;5.63;;;;;;;;;;5099719;27;20154;-87
2022/10/24 08:48:03;;;;;;;10.18;5.97;;;;;;;;;;5097370;28;20482;-87
2022/10/24 08:50:32;;;;;;;13.20;6.13;;;;;;;;;;5098869;28;20032;-87
2022/10/24 08:52:58;;;;;;;8.05;5.43;;;;;;;;;;5100354;27;20015;-87
2022/10/24 08:55:36;;;;;;;12.63;6.00;;;;;;;;;;5106556;27;20019;-87
2022/10/24 08:58:04;;;;;;;10.60;5.80;;;;;;;;;;5097108;28;20035;-87
2022/10/24 09:00:35;;;;;;;7.32;5.72;;;;;;;;;;5099760;27;20033;-87
2022/10/24 09:03:01;;;;;;;10.10;6.28;;;;;;;;;;5101422;27;20350;-87
2022/10/24 09:05:28;;;;;;;9.98;5.30;;;;;;;;;;5105688;28;20024;-87
2022/10/24 09:08:00;;;;;;;11.43;4.93;;;;;;;;;;5098428;28;20023;-87
2022/10/24 09:10:26;;;;;;;;;;;;;;;;;;5098235;28;20027;-85
2022/10/24 09:12:52;;;;;;;10.02;4.93;;;;;;;;;;5097466;28;20380;-86
2022/10/24 09:15:27;;;;;;;9.35;4.88;;;;;;;;;;5106517;27;20023;-87
2022/10/24 09:17:55;;;;;;;11.88;5.82;;;;;;;;;;5099347;28;20020;-87
2022/10/24 09:20:24;;;;;;;10.88;5.28;;;;;;;;;;5104932;27;20072;-86
2022/10/24 09:22:51;;;;;;;13.18;5.63;;;;;;;;;;5103733;27;20031;-85
2022/10/24 09:25:20;;;;;;;12.18;6.20;;;;;;;;;;5102969;28;20389;-86
2022/10/24 09:27:47;;;;;;;12.68;6.57;;;;;;;;;;5095714;28;20058;-86
2022/10/24 09:30:18;;;;;;;11.30;6.07;;;;;;;;;;5114001;27;20020;-86
2022/10/24 09:32:44;;;;;;;12.90;6.28;;;;;;;;;;5101933;28;20035;-86
2022/10/24 09:35:19;;;;;;;11.68;6.32;;;;;;;;;;5102199;27;20059;-86
2022/10/24 09:37:47;;;;;;;9.48;5.07;;;;;;;;;;5097927;28;20032;-86
2022/10/24 09:40:16;;;;;;;9.88;5.38;;;;;;;;;;5102059;27;20028;-86
2022/10/24 09:42:52;;;;;;;6.65;5.30;;;;;;;;;;5102802;28;20073;-85
2022/10/24 09:45:20;;;;;;;8.10;5.60;;;;;;;;;;5105580;27;20031;-87
2022/10/24 09:47:53;;;;;;;15.30;6.10;;;;;;;;;;5095502;28;20020;-86
2022/10/24 09:50:21;;;;;;;9.57;5.75;;;;;;;;;;5106252;27;20072;-86
2022/10/24 09:52:52;;;;;;;10.57;5.60;;;;;;;;;;5116158;27;20094;-86
2022/10/24 09:55:20;;;;;;;8.93;5.30;;;;;;;;;;5100425;27;20496;-86
2022/10/24 09:57:46;;;;;;;9.32;5.25;;;;;;;;;;5097917;27;20027;-87
2022/10/24 10:00:21;;;;;;;7.10;4.93;;;;;;;;;;5096460;28;20043;-87
2022/10/24 10:03:01;;;;;;;15.23;5.68;;;;;;;;;;5099088;28;20524;-86
2022/10/24 10:05:30;;;;;;;12.48;4.93;;;;;;;;;;5103246;28;20481;-86
2022/10/24 10:07:56;;;;;;;7.38;4.30;;;;;;;;;;5098787;27;20023;-86
2022/10/24 10:10:25;;;;;;;11.93;5.00;;;;;;;;;;5096192;27;20469;-85
2022/10/24 10:13:04;;;;;;;13.23;4.90;;;;;;;;;;5098504;28;20427;-86
2022/10/24 10:15:31;;;;;;;11.00;5.65;;;;;;;;;;5110855;27;20114;-85
2022/10/24 10:17:59;;;;;;;7.55;4.80;;;;;;;;;;5097714;28;20504;-86
2022/10/24 10:20:31;;;;;;;8.35;4.57;;;;;;;;;;5099760;28;20027;-87
2022/10/24 10:23:27;;;;;;;10.13;4.72;;;;;;;;;;5094376;28;20024;-85
2022/10/24 10:26:06;;;;;;;10.27;4.45;;;;;;;;;;5080929;28;20020;-86
2022/10/24 10:28:36;;;;;;;10.45;4.90;;;;;;;;;;5107303;27;20072;-86
2022/10/24 10:31:03;;;;;;;6.45;4.03;;;;;;;;;;5093905;28;20019;-86
2022/10/24 10:33:39;;;;;;;8.90;4.65;;;;;;;;;;5096239;28;20548;-86
2022/10/24 10:36:31;;;;;;;9.20;4.53;;;;;;;;;;5056984;28;20439;-78
2022/10/24 10:39:03;;;;;;;7.70;4.40;;;;;;;;;;5058708;28;20043;-80
2022/10/24 10:41:35;;;;;;;8.07;4.07;;;;;;;;;;5058195;28;20029;-76
2022/10/24 10:44:01;;;;;;;11.15;4.38;;;;;;;;;;5058227;28;20625;-74
2022/10/24 10:46:31;;;;;;;8.20;4.60;;;;;;;;;;5059220;28;20035;-73
2022/10/24 10:48:57;;;;;;;8.18;4.43;;;;;;;;;;5058333;28;20023;-75
2022/10/24 10:52:02;;;;;;;9.40;4.22;;;;;;;;;;5056958;28;20025;-74
2022/10/24 10:54:37;;;;;;;8.32;4.57;;;;;;;;;;5035374;28;20017;-74
2022/10/24 10:57:07;;;;;;;7.05;4.43;;;;;;;;;;5035343;28;20079;-71
2022/10/24 10:59:52;;;;;;;8.32;4.47;;;;;;;;;;5047980;28;20041;-73
2022/10/24 11:02:34;;;;;;;5.72;4.18;;;;;;;;;;5058429;28;20097;-74
2022/10/24 11:05:19;;;;;;;9.73;4.78;;;;;;;;;;5056628;28;20024;-75
2022/10/24 11:07:55;;;;;;;12.05;4.72;;;;;;;;;;5057807;28;20078;-75
2022/10/24 11:10:24;;;;;;;12.30;4.50;;;;;;;;;;5057501;28;20031;-77
2022/10/24 11:12:52;;;;;;;9.57;4.60;;;;;;;;;;5058206;28;20563;-76
2022/10/24 11:15:18;;;;;;;9.18;4.00;;;;;;;;;;5057689;28;20032;-76
2022/10/24 11:17:49;;;;;;;7.55;4.30;;;;;;;;;;5055793;28;20100;-77
2022/10/24 11:20:30;;;;;;;8.45;4.60;;;;;;;;;;5057406;28;20025;-77
2022/10/24 11:22:59;;;;;;;9.05;4.50;;;;;;;;;;5058011;28;20023;-76
2022/10/24 11:25:28;;;;;;;9.65;4.70;;;;;;;;;;5057799;28;20024;-77
2022/10/24 11:28:11;;;;;;;9.73;5.05;;;;;;;;;;5040274;28;20033;-79
2022/10/24 11:30:41;;;;;;;7.22;4.25;;;;;;;;;;5036838;28;20030;-73
2022/10/24 11:33:10;;;;;;;8.60;4.03;;;;;;;;;;5042306;28;20025;-74
2022/10/24 11:35:39;;;;;;;12.50;4.53;;;;;;;;;;5037225;28;20455;-75
2022/10/24 11:38:08;;;;;;;9.43;4.43;;;;;;;;;;5036677;28;20022;-73
2022/10/24 11:40:35;;;;;;;7.38;4.13;;;;;;;;;;5031466;28;20029;-73
2022/10/24 11:43:13;;;;;;;8.45;4.85;;;;;;;;;;5037057;28;20017;-76
2022/10/24 11:45:51;;;;;;;9.13;4.80;;;;;;;;;;5032394;28;20033;-77
2022/10/24 11:48:27;;;;;;;9.85;3.90;;;;;;;;;;5023055;28;20112;-73
2022/10/24 11:50:55;;;;;;;10.07;4.45;;;;;;;;;;5010014;28;20021;-74
2022/10/24 11:53:22;;;;;;;7.28;3.80;;;;;;;;;;5022934;28;20612;-75
2022/10/24 11:55:52;;;;;;;8.40;4.30;;;;;;;;;;5023139;28;20044;-77
2022/10/24 11:58:21;;;;;;;9.03;4.30;;;;;;;;;;5023647;28;20507;-75
2022/10/24 12:01:07;;;;;;;6.60;4.15;;;;;;;;;;5023540;28;20095;-78
2022/10/24 12:03:49;;;;;;;10.30;4.63;;;;;;;;;;5014896;28;20037;-74
2022/10/24 12:06:34;;;;;;;9.30;4.25;;;;;;;;;;5023606;28;20085;-74
2022/10/24 12:09:09;;;;;;;6.70;4.40;;;;;;;;;;5022923;28;20032;-77
2022/10/24 12:11:48;;;;;;;7.85;4.68;;;;;;;;;;5019387;28;20025;-76
2022/10/24 12:14:32;;;;;;;8.30;4.38;;;;;;;;;;5023155;28;20734;-77
2022/10/24 12:17:04;;;;;;;9.77;4.50;;;;;;;;;;5023435;28;20025;-75
2022/10/24 12:19:31;;;;;;;8.50;4.30;;;;;;;;;;5023148;28;20036;-75
2022/10/24 12:21:59;;;;;;;6.60;4.07;;;;;;;;;;5023326;28;20061;-76
2022/10/24 12:24:29;;;;;;;11.55;4.43;;;;;;;;;;5021776;28;20872;-77
2022/10/24 12:27:01;;;;;;;7.47;4.38;;;;;;;;;;5023415;28;20045;-78
2022/10/24 12:29:30;;;;;;;7.47;4.65;;;;;;;;;;5022980;28;20489;-74
2022/10/24 12:31:57;;;;;;;7.00;4.40;;;;;;;;;;5021726;28;20112;-77
2022/10/24 12:34:23;;;;;;;10.20;4.53;;;;;;;;;;5022340;28;20052;-75
2022/10/24 12:37:08;;;;;;;8.55;5.55;;;;;;;;;;5023036;28;20021;-77
2022/10/24 12:39:36;;;;;;;7.82;5.13;;;;;;;;;;5011105;28;20040;-74
2022/10/24 12:42:03;;;;;;;8.00;5.15;;;;;;;;;;5019350;28;20021;-77
2022/10/24 12:44:29;;;;;;;11.52;5.30;;;;;;;;;;5023292;28;20030;-75
2022/10/24 12:46:55;;;;;;;10.13;5.28;;;;;;;;;;5023027;28;20124;-75
2022/10/24 12:49:27;;;;;;;16.40;5.82;;;;;;;;;;5022466;28;20045;-74
2022/10/24 12:51:53;;;;;;;;;;;;;;;;;;5023412;28;20118;-77
2022/10/24 12:54:37;;;;;;;8.90;5.70;;;;;;;;;;5021038;28;20443;-76
2022/10/24 12:57:03;;;;;;;9.15;6.35;;;;;;;;;;5022510;28;20029;-74
2022/10/24 12:59:45;;;;;;;7.28;5.80;;;;;;;;;;5020356;28;20416;-75
2022/10/24 13:02:11;;;;;;;10.07;6.32;;;;;;;;;;5022578;28;20022;-75
2022/10/24 13:04:37;;;;;;;7.68;6.82;;;;;;;;;;5022625;28;20044;-74
2022/10/24 13:07:06;;;;;;;10.13;7.00;;;;;;;;;;5021161;28;20030;-76
2022/10/24 13:09:45;;;;;;;8.88;6.57;;;;;;;;;;5022595;28;20103;-77
2022/10/24 13:12:29;;;;;;;9.35;7.53;;;;;;;;;;5022331;28;20140;-77
2022/10/24 13:15:14;;;;;;;12.70;7.38;;;;;;;;;;5022013;28;20103;-77
2022/10/24 13:17:49;;;;;;;10.48;7.68;;;;;;;;;;5022121;28;20496;-77
2022/10/24 13:20:15;;;;;;;9.02;7.40;;;;;;;;;;5021402;28;20642;-76
2022/10/24 13:22:42;;;;;;;10.55;7.50;;;;;;;;;;5021999;28;20554;-76
2022/10/24 13:25:19;;;;;;;8.85;7.13;;;;;;;;;;5021957;28;20041;-78
2022/10/24 13:27:45;;;;;;;9.80;6.93;;;;;;;;;;5020287;28;20030;-72
2022/10/24 13:30:25;;;;;;;11.63;7.28;;;;;;;;;;5021675;28;20063;-71
2022/10/24 13:33:11;;;;;;;12.75;8.18;;;;;;;;;;5021379;28;20280;-71
2022/10/24 13:35:38;;;;;;;7.50;6.68;;;;;;;;;;5021823;28;20076;-70
2022/10/24 13:38:04;;;;;;;11.93;6.97;;;;;;;;;;5021808;28;20040;-71
2022/10/24 13:40:32;;;;;;;11.77;7.35;;;;;;;;;;5006307;28;20021;-71
2022/10/24 13:42:59;;;;;;;11.40;7.22;;;;;;;;;;5022077;28;20947;-71
2022/10/24 13:45:28;;;;;;;14.52;7.22;;;;;;;;;;5022441;28;20028;-71
2022/10/24 13:48:02;;;;;;;11.75;7.95;;;;;;;;;;5022127;28;20040;-71
2022/10/24 13:50:30;;;;;;;10.20;7.20;;;;;;;;;;5018702;28;20028;-71
2022/10/24 13:52:58;;;;;;;10.82;7.60;;;;;;;;;;5018865;28;20031;-71
2022/10/24 13:55:31;;;;;;;9.93;7.63;;;;;;;;;;4999070;28;20062;-71
2022/10/24 13:58:00;;;;;;;11.48;7.72;;;;;;;;;;5004122;28;20014;-71
2022/10/24 14:00:34;;;;;;;11.07;7.20;;;;;;;;;;5008740;28;20291;-71
2022/10/24 14:03:03;;;;;;;12.32;7.72;;;;;;;;;;5010195;28;20018;-71
2022/10/24 14:05:34;;;;;;;9.35;7.03;;;;;;;;;;5016772;28;20545;-71
2022/10/24 14:08:00;;;;;;;11.45;7.03;;;;;;;;;;5021481;28;20060;-71
2022/10/24 14:10:27;;;;;;;15.07;7.70;;;;;;;;;;5019676;28;20546;-71
2022/10/24 14:12:56;;;;;;;12.65;7.18;;;;;;;;;;5007354;28;20051;-71
2022/10/24 14:15:24;;;;;;;13.25;7.47;;;;;;;;;;5021318;28;20033;-72
2022/10/24 14:17:54;;;;;;;14.27;8.18;;;;;;;;;;5020955;28;20079;-71
2022/10/24 14:20:22;;;;;;;12.60;7.78;;;;;;;;;;5021190;28;20112;-71
2022/10/24 14:22:49;;;;;;;9.70;7.55;;;;;;;;;;5019816;28;20165;-71
2022/10/24 14:25:27;;;;;;;10.73;7.63;;;;;;;;;;5019758;28;20035;-71
2022/10/24 14:27:54;;;;;;;10.15;7.80;;;;;;;;;;5018669;28;20022;-71
2022/10/24 14:30:21;;;;;;;10.27;7.72;;;;;;;;;;5010636;28;20025;-71
2022/10/24 14:32:48;;;;;;;11.82;7.65;;;;;;;;;;5019422;28;20319;-71
2022/10/24 14:35:14;;;;;;;11.77;7.95;;;;;;;;;;5019820;28;20088;-72
2022/10/24 14:37:41;;;;;;;12.63;8.65;;;;;;;;;;5021324;28;20120;-71
2022/10/24 14:40:15;;;;;;;11.32;8.40;;;;;;;;;;5021160;28;20029;-71
2022/10/24 14:42:41;;;;;;;10.27;8.75;;;;;;;;;;5020892;28;20026;-71
2022/10/24 14:45:20;;;;;;;9.30;7.82;;;;;;;;;;5020249;28;20017;-71
2022/10/24 14:47:50;;;;;;;9.85;7.75;;;;;;;;;;5021674;28;20025;-71